Time;durP1;ratioP1;P1;durP2;ratioP2;P2;SDS_P1;SDS_P2;PMS_P1;PMS_P2;Temp;Humidity;BMP_temperature;BMP_pressure;BME280_temperature;BME280_humidity;BME280_pressure;Samples;Min_cycle;Max_cycle;Signal;HPM_P1;HPM_P2
2023/05/03 00:01:51;;;;;;;11.18;4.40;;;3.50;99.90;;;;;;7301242;32;20202;-54
2023/05/03 00:05:53;;;;;;;8.27;4.00;;;3.40;99.90;;;;;;7293885;32;20178;-54
2023/05/03 00:09:55;;;;;;;6.75;4.75;;;3.40;99.90;;;;;;7300124;32;20100;-53
2023/05/03 00:13:56;;;;;;;10.77;4.15;;;3.40;99.90;;;;;;7303783;32;20238;-54
2023/05/03 00:17:58;;;;;;;5.90;4.37;;;3.30;99.90;;;;;;7302633;32;20489;-54
2023/05/03 00:22:00;;;;;;;6.68;4.22;;;3.30;99.90;;;;;;7297321;32;20505;-54
2023/05/03 00:26:02;;;;;;;10.23;4.15;;;3.20;99.90;;;;;;7299092;32;20756;-55
2023/05/03 00:30:05;;;;;;;8.60;5.20;;;3.20;99.90;;;;;;7299937;32;20167;-54
2023/05/03 00:34:07;;;;;;;7.47;5.47;;;3.20;99.90;;;;;;7298246;32;20127;-56
2023/05/03 00:38:08;;;;;;;8.45;5.43;;;3.10;99.90;;;;;;7296365;32;20213;-56
2023/05/03 00:42:10;;;;;;;8.60;4.90;;;3.00;99.90;;;;;;7299203;32;20209;-56
2023/05/03 00:46:12;;;;;;;11.12;4.60;;;3.00;99.90;;;;;;7296111;32;20124;-58
2023/05/03 00:50:18;;;;;;;6.93;4.93;;;2.90;99.90;;;;;;7295013;32;20330;-56
2023/05/03 00:54:21;;;;;;;12.45;5.45;;;2.90;99.90;;;;;;7297737;32;20135;-58
2023/05/03 00:58:24;;;;;;;9.20;4.95;;;2.90;99.90;;;;;;7298315;32;20100;-56
2023/05/03 01:02:26;;;;;;;7.72;4.47;;;2.80;99.90;;;;;;7305785;32;20308;-56
2023/05/03 01:06:37;;;;;;;6.75;4.10;;;2.80;99.90;;;;;;7304301;32;20213;-56
2023/05/03 01:10:50;;;;;;;10.73;4.12;;;2.70;99.90;;;;;;7302355;32;20215;-56
2023/05/03 01:14:58;;;;;;;7.78;4.12;;;2.70;99.90;;;;;;7299633;32;20122;-58
2023/05/03 01:19:05;;;;;;;5.80;3.90;;;2.60;99.90;;;;;;7308695;32;20381;-56
2023/05/03 01:23:13;;;;;;;7.82;4.40;;;2.60;99.90;;;;;;7302547;32;20428;-56
2023/05/03 01:27:15;;;;;;;6.43;4.10;;;2.50;99.90;;;;;;7305666;32;20108;-54
2023/05/03 01:31:40;;;;;;;7.12;4.12;;;2.50;99.90;;;;;;7306675;32;20157;-53
2023/05/03 01:35:55;;;;;;;8.85;4.47;;;2.50;99.90;;;;;;7299159;32;20129;-54
2023/05/03 01:40:06;;;;;;;5.68;4.25;;;2.50;99.90;;;;;;7303749;32;22916;-53
2023/05/03 01:44:09;;;;;;;13.48;4.40;;;2.50;99.90;;;;;;7301834;32;20254;-53
2023/05/03 01:48:15;;;;;;;6.60;4.25;;;2.40;99.90;;;;;;7300146;32;20324;-53
2023/05/03 01:52:17;;;;;;;6.70;4.40;;;2.40;99.90;;;;;;7304542;32;20145;-56
2023/05/03 01:56:18;;;;;;;9.85;4.85;;;2.30;99.90;;;;;;7299469;32;20179;-56
2023/05/03 02:00:20;;;;;;;10.70;5.22;;;2.30;99.90;;;;;;7300872;32;20100;-56
2023/05/03 02:04:22;;;;;;;8.10;4.20;;;2.30;99.90;;;;;;7298652;32;20126;-57
2023/05/03 02:08:24;;;;;;;10.25;4.00;;;2.30;99.90;;;;;;7294737;32;20434;-56
2023/05/03 02:12:25;;;;;;;5.47;4.05;;;2.20;99.90;;;;;;7295729;32;20665;-56
2023/05/03 02:16:28;;;;;;;6.47;4.37;;;2.10;99.90;;;;;;7301149;32;20111;-56
2023/05/03 02:20:34;;;;;;;9.88;4.50;;;2.10;99.90;;;;;;7299629;32;20103;-56
2023/05/03 02:24:36;;;;;;;11.43;4.85;;;2.10;99.90;;;;;;7290608;32;21990;-55
2023/05/03 02:28:37;;;;;;;9.90;4.32;;;2.10;99.90;;;;;;7301380;32;20426;-55
2023/05/03 02:32:39;;;;;;;9.77;4.85;;;2.00;99.90;;;;;;7300135;32;20940;-55
2023/05/03 02:36:41;;;;;;;6.68;4.10;;;2.00;99.90;;;;;;7298802;32;20541;-56
2023/05/03 02:40:42;;;;;;;6.75;4.25;;;2.00;99.90;;;;;;7301373;32;20104;-56
2023/05/03 02:44:45;;;;;;;9.50;4.95;;;2.00;99.90;;;;;;7295250;32;20204;-56
2023/05/03 02:48:47;;;;;;;6.75;4.72;;;1.90;99.90;;;;;;7302242;32;20131;-56
2023/05/03 02:52:48;;;;;;;7.03;4.50;;;1.80;99.90;;;;;;7301450;32;20171;-55
2023/05/03 02:56:50;;;;;;;8.13;4.60;;;1.90;99.90;;;;;;7304739;32;20604;-56
2023/05/03 03:00:52;;;;;;;9.02;4.30;;;1.80;99.90;;;;;;7299765;32;20733;-57
2023/05/03 03:04:54;;;;;;;7.95;4.25;;;1.80;99.90;;;;;;7302216;32;20574;-57
2023/05/03 03:08:55;;;;;;;8.75;4.57;;;1.80;99.90;;;;;;7300576;32;20183;-55
2023/05/03 03:12:57;;;;;;;7.93;4.22;;;1.90;99.90;;;;;;7309339;32;20328;-56
2023/05/03 03:17:04;;;;;;;8.25;4.82;;;1.80;99.90;;;;;;7301541;32;20553;-55
2023/05/03 03:21:07;;;;;;;8.50;4.95;;;1.90;99.90;;;;;;7304495;32;20528;-55
2023/05/03 03:25:09;;;;;;;10.88;5.45;;;2.00;99.90;;;;;;7300982;32;20278;-56
2023/05/03 03:29:10;;;;;;;9.70;6.28;;;2.10;99.90;;;;;;7304430;32;20158;-56
2023/05/03 03:33:12;;;;;;;13.90;6.93;;;2.20;99.90;;;;;;7302553;32;20128;-56
2023/05/03 03:37:14;;;;;;;12.43;7.93;;;2.30;99.90;;;;;;7303088;32;20299;-56
2023/05/03 03:41:18;;;;;;;15.10;8.70;;;2.40;99.90;;;;;;7308928;32;20214;-56
2023/05/03 03:45:19;;;;;;;12.25;8.52;;;2.60;99.90;;;;;;7303167;32;20208;-56
2023/05/03 03:49:21;;;;;;;13.32;9.55;;;2.70;99.90;;;;;;7302721;32;20249;-55
2023/05/03 03:53:23;;;;;;;16.08;9.00;;;2.80;99.90;;;;;;7300576;32;20199;-56
2023/05/03 03:57:28;;;;;;;16.85;10.32;;;2.90;99.90;;;;;;7305778;32;20640;-55
2023/05/03 04:01:30;;;;;;;13.75;9.43;;;3.10;99.90;;;;;;7302338;32;20597;-55
2023/05/03 04:05:31;;;;;;;15.13;9.15;;;3.30;99.90;;;;;;7301742;32;20161;-56
2023/05/03 04:09:33;;;;;;;18.00;10.60;;;3.30;99.90;;;;;;7303711;32;20628;-56
2023/05/03 04:13:35;;;;;;;21.33;10.98;;;3.40;99.90;;;;;;7308249;32;20432;-56
2023/05/03 04:17:37;;;;;;;16.33;11.00;;;3.50;99.90;;;;;;7302904;32;20132;-56
2023/05/03 04:21:39;;;;;;;16.08;9.10;;;3.60;99.90;;;;;;7307233;32;20220;-56
2023/05/03 04:25:45;;;;;;;13.20;9.10;;;3.70;99.90;;;;;;7298569;32;20126;-56
2023/05/03 04:29:47;;;;;;;16.30;7.72;;;3.70;99.90;;;;;;7300781;32;20149;-56
2023/05/03 04:33:49;;;;;;;15.07;8.55;;;3.70;99.90;;;;;;7305081;32;20108;-55
2023/05/03 04:37:51;;;;;;;9.65;7.57;;;3.70;99.90;;;;;;7300281;32;20659;-55
2023/05/03 04:41:52;;;;;;;9.75;6.65;;;3.70;99.90;;;;;;7300047;32;20258;-55
2023/05/03 04:45:54;;;;;;;10.98;6.68;;;3.50;99.90;;;;;;7302996;32;20514;-55
2023/05/03 04:49:56;;;;;;;9.27;6.20;;;3.50;99.90;;;;;;7305521;32;20108;-56
2023/05/03 04:53:58;;;;;;;10.25;6.10;;;3.50;99.90;;;;;;7298925;32;20194;-56
2023/05/03 04:58:00;;;;;;;9.40;5.90;;;3.70;99.90;;;;;;7303532;32;20213;-55
2023/05/03 05:02:02;;;;;;;11.63;7.37;;;3.90;99.90;;;;;;7298218;32;20096;-56
2023/05/03 05:06:05;;;;;;;9.73;6.03;;;4.20;99.90;;;;;;7309540;32;20505;-56
2023/05/03 05:10:08;;;;;;;11.93;6.25;;;4.60;99.90;;;;;;7299192;32;20784;-56
2023/05/03 05:14:09;;;;;;;11.95;6.75;;;4.60;99.90;;;;;;7298098;32;20191;-56
2023/05/03 05:18:11;;;;;;;7.07;5.72;;;4.70;99.90;;;;;;7302310;32;20530;-56
2023/05/03 05:22:13;;;;;;;9.07;5.95;;;4.80;99.90;;;;;;7303064;32;20112;-56
2023/05/03 05:26:15;;;;;;;11.32;6.07;;;4.80;99.90;;;;;;7306647;32;20556;-56
2023/05/03 05:30:18;;;;;;;13.93;6.10;;;4.90;99.90;;;;;;7302119;32;20088;-55
2023/05/03 05:34:20;;;;;;;8.45;5.70;;;5.10;99.90;;;;;;7304989;32;20251;-56
2023/05/03 05:38:21;;;;;;;9.05;6.25;;;5.30;99.90;;;;;;7304328;32;20560;-56
2023/05/03 05:42:23;;;;;;;8.32;5.90;;;5.30;99.90;;;;;;7300444;32;20716;-56
2023/05/03 05:46:25;;;;;;;9.52;5.60;;;5.50;99.90;;;;;;7297435;32;20203;-55
2023/05/03 05:50:27;;;;;;;13.77;6.20;;;5.60;99.90;;;;;;7304816;32;20103;-55
2023/05/03 05:54:28;;;;;;;18.75;10.98;;;5.80;99.90;;;;;;7307834;32;20221;-56
2023/05/03 05:58:31;;;;;;;17.00;6.53;;;6.00;99.90;;;;;;7306400;32;20119;-55
2023/05/03 06:02:33;;;;;;;16.70;6.82;;;6.10;99.90;;;;;;7304410;32;20100;-56
2023/05/03 06:06:35;;;;;;;10.32;6.25;;;6.30;99.90;;;;;;7305665;32;20125;-56
2023/05/03 06:10:36;;;;;;;12.60;6.97;;;6.40;99.90;;;;;;7314355;32;20122;-56
2023/05/03 06:14:38;;;;;;;11.90;6.05;;;6.60;99.90;;;;;;7310656;32;20231;-55
2023/05/03 06:18:52;;;;;;;14.98;6.28;;;6.70;99.90;;;;;;7303850;32;20117;-56
2023/05/03 06:22:54;;;;;;;12.25;6.82;;;6.90;99.90;;;;;;7311550;32;20120;-56
2023/05/03 06:26:56;;;;;;;14.68;6.00;;;7.00;99.90;;;;;;7318390;32;20187;-56
2023/05/03 06:30:58;;;;;;;12.15;6.12;;;7.10;99.90;;;;;;7312590;32;20591;-55
2023/05/03 06:35:02;;;;;;;12.27;6.65;;;7.30;99.90;;;;;;7315602;32;20138;-55
2023/05/03 06:39:04;;;;;;;11.35;6.22;;;7.40;99.90;;;;;;7314236;32;20173;-56
2023/05/03 06:43:06;;;;;;;11.35;5.50;;;7.60;99.90;;;;;;7305320;32;20095;-56
2023/05/03 06:47:08;;;;;;;10.32;5.70;;;7.80;99.90;;;;;;7303618;32;20207;-56
2023/05/03 06:51:10;;;;;;;8.63;4.70;;;8.10;99.90;;;;;;7309887;32;20285;-55
2023/05/03 06:55:12;;;;;;;7.47;3.70;;;8.60;99.90;;;;;;7311356;32;20103;-57
2023/05/03 06:59:14;;;;;;;5.65;2.85;;;8.80;99.90;;;;;;7311389;32;20301;-56
2023/05/03 07:03:16;;;;;;;4.45;2.42;;;9.00;99.90;;;;;;7312683;32;20096;-55
2023/05/03 07:07:18;;;;;;;6.78;2.60;;;9.00;99.90;;;;;;7309468;32;20293;-57
2023/05/03 07:11:23;;;;;;;5.37;2.37;;;9.30;99.90;;;;;;7298341;32;20326;-57
2023/05/03 07:15:25;;;;;;;4.30;2.30;;;9.50;99.90;;;;;;7305292;32;20492;-56
2023/05/03 07:19:26;;;;;;;6.72;2.75;;;9.60;99.90;;;;;;7305524;32;20119;-56
2023/05/03 07:23:28;;;;;;;4.87;2.20;;;9.40;99.90;;;;;;7311815;32;20281;-56
2023/05/03 07:27:30;;;;;;;4.00;1.92;;;9.60;99.90;;;;;;7303284;32;20683;-55
2023/05/03 07:31:31;;;;;;;5.53;2.15;;;9.60;99.90;;;;;;7307008;32;20621;-57
2023/05/03 07:35:33;;;;;;;4.93;2.00;;;9.80;99.90;;;;;;7305401;32;20143;-57
2023/05/03 07:39:35;;;;;;;3.47;2.15;;;9.60;99.90;;;;;;7303183;32;20214;-57
2023/05/03 07:43:37;;;;;;;8.43;1.80;;;9.50;99.90;;;;;;7302919;32;20132;-55
2023/05/03 07:47:39;;;;;;;4.90;2.20;;;9.60;99.90;;;;;;7310333;32;20136;-55
2023/05/03 07:51:41;;;;;;;7.93;2.37;;;9.50;99.90;;;;;;7308862;32;20225;-56
2023/05/03 07:55:43;;;;;;;4.37;2.83;;;9.60;99.90;;;;;;7320562;32;20125;-56
2023/05/03 07:59:44;;;;;;;4.65;2.85;;;9.50;99.90;;;;;;7308186;32;20126;-56
2023/05/03 08:03:49;;;;;;;4.90;2.67;;;9.60;99.90;;;;;;7315316;32;20120;-55
2023/05/03 08:07:52;;;;;;;5.47;2.60;;;9.80;99.90;;;;;;7312599;32;20130;-56
2023/05/03 08:11:55;;;;;;;4.75;2.70;;;10.00;99.90;;;;;;7311529;32;20115;-56
2023/05/03 08:15:57;;;;;;;7.00;3.20;;;10.30;99.90;;;;;;7300668;32;20127;-56
2023/05/03 08:19:59;;;;;;;5.18;3.10;;;10.20;99.90;;;;;;7295876;32;21044;-58
2023/05/03 08:24:01;;;;;;;6.25;2.67;;;10.50;99.90;;;;;;7295276;32;20234;-56
2023/05/03 08:28:03;;;;;;;5.05;2.42;;;10.80;99.90;;;;;;7303129;32;20230;-58
2023/05/03 08:32:05;;;;;;;7.62;2.67;;;11.20;99.90;;;;;;7292193;32;20130;-56
2023/05/03 08:36:07;;;;;;;5.72;2.65;;;11.40;99.90;;;;;;7297167;32;20119;-55
2023/05/03 08:40:13;;;;;;;5.87;2.70;;;12.00;99.90;;;;;;7296840;32;20242;-56
2023/05/03 08:44:24;;;;;;;4.95;2.55;;;12.60;99.90;;;;;;7299886;32;20611;-56
2023/05/03 08:48:26;;;;;;;4.87;2.30;;;12.90;99.90;;;;;;7304086;32;20172;-56
2023/05/03 08:52:33;;;;;;;6.00;2.67;;;13.60;99.90;;;;;;7301862;32;20791;-56
2023/05/03 08:56:42;;;;;;;4.47;2.20;;;15.50;98.10;;;;;;7302829;32;20239;-56
2023/05/03 09:00:44;;;;;;;5.57;2.80;;;15.40;99.20;;;;;;7293629;32;20161;-57
2023/05/03 09:04:46;;;;;;;7.87;2.35;;;17.00;91.70;;;;;;7294763;32;20491;-56
2023/05/03 09:08:47;;;;;;;7.03;2.97;;;17.70;90.30;;;;;;7299379;32;20130;-56
2023/05/03 09:12:58;;;;;;;7.30;2.80;;;16.10;91.40;;;;;;7291809;32;20225;-57
2023/05/03 09:17:19;;;;;;;6.45;2.47;;;17.40;88.10;;;;;;7295518;32;20118;-56
2023/05/03 09:21:21;;;;;;;6.25;2.80;;;16.00;86.10;;;;;;7313859;32;20100;-56
2023/05/03 09:25:22;;;;;;;9.05;3.15;;;15.80;87.40;;;;;;7317632;32;20223;-56
2023/05/03 09:29:34;;;;;;;4.25;2.50;;;17.60;86.90;;;;;;7314212;32;20095;-56
2023/05/03 09:33:36;;;;;;;6.20;2.60;;;17.10;85.70;;;;;;7317172;32;20494;-56
2023/05/03 09:37:38;;;;;;;9.93;3.00;;;16.50;85.60;;;;;;7322225;32;20549;-56
2023/05/03 09:41:39;;;;;;;5.43;2.78;;;16.00;84.20;;;;;;7320730;32;20221;-56
2023/05/03 09:45:41;;;;;;;7.50;2.50;;;16.30;84.60;;;;;;7323109;32;20344;-57
2023/05/03 09:49:58;;;;;;;5.65;2.80;;;16.90;82.50;;;;;;7313468;32;20212;-57
2023/05/03 09:54:02;;;;;;;6.35;2.85;;;16.10;79.70;;;;;;7313540;32;20127;-56
2023/05/03 09:58:05;;;;;;;5.60;2.95;;;16.00;85.80;;;;;;7325109;32;20554;-56
2023/05/03 10:02:07;;;;;;;4.82;2.05;;;16.00;79.50;;;;;;7308529;32;20199;-56
2023/05/03 10:06:30;;;;;;;6.45;2.78;;;16.30;87.60;;;;;;7311267;32;20605;-58
2023/05/03 10:10:34;;;;;;;5.70;2.50;;;16.50;82.70;;;;;;7313339;32;20169;-57
2023/05/03 10:14:36;;;;;;;6.70;3.10;;;16.80;77.20;;;;;;7313053;32;20121;-56
2023/05/03 10:18:55;;;;;;;4.82;3.15;;;15.40;81.70;;;;;;7304107;32;20175;-56
2023/05/03 10:23:06;;;;;;;4.72;2.90;;;16.20;81.80;;;;;;7303028;32;20400;-56
2023/05/03 10:27:11;;;;;;;8.35;2.95;;;15.10;81.00;;;;;;7308127;32;20108;-57
2023/05/03 10:32:00;;;;;;;6.12;2.62;;;16.00;80.00;;;;;;7309630;32;20192;-56
2023/05/03 10:36:09;;;;;;;8.45;2.80;;;16.30;81.90;;;;;;7290664;32;20142;-56
2023/05/03 10:40:13;;;;;;;5.50;2.55;;;15.80;80.90;;;;;;7298127;32;20228;-56
2023/05/03 10:44:51;;;;;;;6.28;2.67;;;16.60;80.40;;;;;;7299677;32;20249;-56
2023/05/03 10:49:16;;;;;;;7.07;2.78;;;17.40;82.30;;;;;;7297107;32;20100;-56
2023/05/03 10:53:34;;;;;;;6.57;2.95;;;17.50;76.00;;;;;;7301144;32;20096;-56
2023/05/03 10:57:37;;;;;;;8.20;3.05;;;16.70;80.60;;;;;;7298100;32;20168;-57
2023/05/03 11:01:44;;;;;;;6.07;2.80;;;16.70;83.30;;;;;;7299959;32;20693;-56
2023/05/03 11:05:47;;;;;;;8.55;3.00;;;16.40;85.40;;;;;;7305835;32;20127;-56
2023/05/03 11:09:48;;;;;;;5.10;2.47;;;16.30;81.40;;;;;;7294425;32;20115;-57
2023/05/03 11:13:51;;;;;;;9.57;3.12;;;15.90;82.50;;;;;;7291020;32;20245;-53
2023/05/03 11:17:53;;;;;;;6.97;2.83;;;15.80;87.10;;;;;;7294853;32;20183;-56
2023/05/03 11:21:56;;;;;;;4.43;2.75;;;16.20;83.80;;;;;;7307475;32;20116;-57
2023/05/03 11:25:57;;;;;;;7.03;3.10;;;16.50;86.00;;;;;;7305987;32;20870;-57
2023/05/03 11:29:59;;;;;;;4.62;3.30;;;16.60;84.00;;;;;;7314863;32;20317;-57
2023/05/03 11:34:01;;;;;;;6.05;2.35;;;17.10;82.90;;;;;;7304825;32;20221;-57
2023/05/03 11:38:03;;;;;;;6.12;2.78;;;17.40;82.70;;;;;;7311211;32;20112;-56
2023/05/03 11:42:05;;;;;;;7.37;2.70;;;17.60;81.30;;;;;;7320338;32;20168;-55
2023/05/03 11:46:07;;;;;;;8.18;3.10;;;18.20;80.30;;;;;;7302593;32;20624;-54
2023/05/03 11:50:09;;;;;;;4.93;2.40;;;18.00;75.90;;;;;;7300038;32;20557;-55
2023/05/03 11:54:11;;;;;;;3.05;2.33;;;19.20;77.20;;;;;;7296883;32;20636;-55
2023/05/03 11:58:26;;;;;;;5.20;2.78;;;19.90;72.30;;;;;;7298666;32;20805;-56
2023/05/03 12:02:29;;;;;;;8.70;3.10;;;20.50;71.30;;;;;;7292365;32;20238;-56
2023/05/03 12:06:32;;;;;;;5.47;2.33;;;20.40;68.00;;;;;;7296264;32;20122;-56
2023/05/03 12:10:36;;;;;;;6.15;2.62;;;21.70;64.90;;;;;;7299984;32;20223;-56
2023/05/03 12:14:59;;;;;;;9.90;2.67;;;22.20;63.10;;;;;;7302715;32;20191;-56
2023/05/03 12:19:03;;;;;;;4.68;2.72;;;22.30;59.60;;;;;;7295872;32;20199;-56
2023/05/03 12:23:07;;;;;;;4.97;1.98;;;22.20;57.80;;;;;;7295780;32;20134;-56
2023/05/03 12:27:12;;;;;;;4.80;2.50;;;23.30;57.60;;;;;;7302584;32;20292;-57
2023/05/03 12:31:16;;;;;;;4.70;2.75;;;24.20;56.30;;;;;;7304690;32;20103;-56
2023/05/03 12:35:26;;;;;;;3.90;2.40;;;23.80;54.80;;;;;;7299837;32;20223;-57
2023/05/03 12:39:36;;;;;;;6.07;2.15;;;24.60;53.30;;;;;;7299505;32;20127;-56
2023/05/03 12:43:41;;;;;;;4.78;2.35;;;24.00;51.50;;;;;;7306936;32;20199;-56
2023/05/03 12:47:44;;;;;;;5.12;2.60;;;23.60;51.80;;;;;;7302687;32;20112;-57
2023/05/03 12:51:50;;;;;;;5.18;2.62;;;22.30;54.40;;;;;;7300374;32;20241;-57
2023/05/03 12:56:13;;;;;;;4.37;2.33;;;21.90;52.40;;;;;;7306881;32;20201;-57
2023/05/03 13:00:16;;;;;;;4.60;2.33;;;20.30;56.40;;;;;;7302779;32;20200;-56
2023/05/03 13:04:21;;;;;;;6.65;3.20;;;19.30;59.30;;;;;;7302222;32;20227;-56
2023/05/03 13:08:43;;;;;;;5.35;3.28;;;19.00;61.00;;;;;;7302876;32;20104;-58
2023/05/03 13:12:52;;;;;;;6.18;2.87;;;19.00;59.00;;;;;;7298538;32;20314;-56
2023/05/03 13:17:01;;;;;;;5.32;3.28;;;18.50;61.50;;;;;;7306564;32;20269;-56
2023/05/03 13:21:05;;;;;;;6.12;3.20;;;18.40;62.70;;;;;;7301547;32;20458;-59
2023/05/03 13:25:07;;;;;;;6.43;3.00;;;18.80;62.50;;;;;;7299329;32;20108;-56
2023/05/03 13:29:08;;;;;;;6.97;3.50;;;18.90;62.70;;;;;;7304844;32;20240;-56
2023/05/03 13:33:10;;;;;;;7.18;3.35;;;19.60;59.10;;;;;;7304598;32;20124;-56
2023/05/03 13:37:17;;;;;;;6.28;3.30;;;19.20;58.60;;;;;;7298883;32;20590;-57
2023/05/03 13:41:19;;;;;;;5.00;2.80;;;19.20;60.00;;;;;;7298762;32;20129;-57
2023/05/03 13:45:20;;;;;;;4.37;3.00;;;20.10;57.80;;;;;;7298776;32;20126;-56
2023/05/03 13:49:22;;;;;;;6.80;2.83;;;20.50;57.00;;;;;;7299995;32;20198;-57
2023/05/03 13:53:25;;;;;;;5.12;2.78;;;20.40;57.90;;;;;;7306701;32;20499;-57
2023/05/03 13:57:27;;;;;;;7.57;3.03;;;20.80;58.00;;;;;;7303513;32;20263;-56
2023/05/03 14:01:29;;;;;;;6.62;3.45;;;20.20;57.30;;;;;;7305214;32;20134;-56
2023/05/03 14:05:31;;;;;;;9.10;3.53;;;19.90;58.10;;;;;;7299893;32;20199;-56
2023/05/03 14:09:38;;;;;;;5.50;2.87;;;19.90;56.80;;;;;;7301730;32;20131;-56
2023/05/03 14:13:40;;;;;;;4.75;3.47;;;20.80;57.40;;;;;;7312507;32;20159;-57
2023/05/03 14:17:57;;;;;;;5.30;2.90;;;20.50;55.30;;;;;;7313298;32;20607;-57
2023/05/03 14:22:03;;;;;;;5.13;3.33;;;21.50;55.80;;;;;;7308767;32;20441;-57
2023/05/03 14:26:08;;;;;;;4.22;2.90;;;21.20;54.10;;;;;;7312416;32;20192;-57
2023/05/03 14:30:10;;;;;;;6.18;2.85;;;20.80;54.50;;;;;;7302083;32;20139;-58
2023/05/03 14:34:12;;;;;;;6.80;3.05;;;21.00;56.40;;;;;;7308738;32;20405;-58
2023/05/03 14:38:13;;;;;;;11.23;3.12;;;21.60;56.10;;;;;;7307685;32;20120;-58
2023/05/03 14:42:15;;;;;;;6.15;2.80;;;20.80;55.40;;;;;;7311832;32;20343;-58
2023/05/03 14:46:17;;;;;;;8.10;3.28;;;20.40;57.60;;;;;;7307744;32;20529;-57
2023/05/03 14:50:18;;;;;;;4.53;2.95;;;20.60;57.10;;;;;;7305614;32;20293;-57
2023/05/03 14:54:22;;;;;;;5.60;3.37;;;20.30;57.60;;;;;;7300399;32;20553;-58
2023/05/03 14:58:23;;;;;;;6.53;2.95;;;19.90;59.30;;;;;;7300036;32;20160;-57
2023/05/03 15:02:25;;;;;;;6.60;3.50;;;19.70;61.00;;;;;;7290720;32;20112;-56
2023/05/03 15:06:30;;;;;;;7.05;3.40;;;18.10;63.20;;;;;;7301571;32;20123;-57
2023/05/03 15:10:32;;;;;;;7.10;3.28;;;17.60;65.80;;;;;;7299326;32;20284;-56
2023/05/03 15:14:35;;;;;;;6.62;3.62;;;17.60;66.50;;;;;;7309381;32;20935;-56
2023/05/03 15:18:36;;;;;;;4.85;3.53;;;17.60;67.20;;;;;;7309512;32;20115;-57
2023/05/03 15:22:38;;;;;;;8.40;3.85;;;16.70;67.60;;;;;;7309044;32;20112;-57
2023/05/03 15:26:40;;;;;;;7.35;3.70;;;16.50;69.20;;;;;;7312202;32;20139;-57
2023/05/03 15:30:42;;;;;;;5.70;3.47;;;16.40;71.20;;;;;;7311872;32;20104;-56
2023/05/03 15:34:44;;;;;;;7.07;3.95;;;16.40;69.90;;;;;;7309992;32;20171;-57
2023/05/03 15:38:46;;;;;;;6.68;3.97;;;15.90;72.10;;;;;;7310076;32;20112;-56
2023/05/03 15:42:48;;;;;;;8.10;4.53;;;16.00;71.00;;;;;;7308751;32;20207;-56
2023/05/03 15:46:49;;;;;;;9.48;3.50;;;16.00;72.00;;;;;;7311889;32;20181;-56
2023/05/03 15:50:51;;;;;;;8.65;4.25;;;15.90;73.20;;;;;;7305320;32;20181;-57
2023/05/03 15:54:54;;;;;;;8.73;3.65;;;16.00;72.30;;;;;;7309832;32;20115;-57
2023/05/03 15:58:56;;;;;;;6.00;3.33;;;16.00;73.90;;;;;;7309933;32;20203;-56
2023/05/03 16:02:58;;;;;;;8.10;3.87;;;15.90;74.30;;;;;;7313179;32;20516;-56
2023/05/03 16:07:00;;;;;;;4.57;3.08;;;16.00;75.30;;;;;;7314011;32;20442;-56
2023/05/03 16:11:02;;;;;;;7.53;4.05;;;16.00;75.00;;;;;;7303236;32;20138;-57
2023/05/03 16:15:04;;;;;;;7.97;4.05;;;16.00;73.40;;;;;;7308231;32;20502;-57
2023/05/03 16:19:08;;;;;;;5.70;4.05;;;15.90;74.30;;;;;;7305081;32;20132;-56
2023/05/03 16:23:10;;;;;;;6.28;3.40;;;15.70;74.90;;;;;;7308566;32;20171;-56
2023/05/03 16:27:12;;;;;;;7.68;4.75;;;15.70;75.60;;;;;;7315272;32;20205;-56
2023/05/03 16:31:15;;;;;;;9.23;4.10;;;15.50;76.70;;;;;;7307426;32;20152;-57
2023/05/03 16:35:18;;;;;;;10.88;4.28;;;15.50;78.30;;;;;;7309743;32;20746;-55
2023/05/03 16:39:20;;;;;;;7.30;4.03;;;15.40;78.50;;;;;;7301117;32;21312;-55
2023/05/03 16:43:21;;;;;;;7.55;3.80;;;15.50;78.70;;;;;;7301957;32;20141;-56
2023/05/03 16:47:23;;;;;;;7.55;4.25;;;15.50;78.80;;;;;;7302435;32;20190;-56
2023/05/03 16:51:26;;;;;;;9.73;3.58;;;15.40;78.90;;;;;;7300793;32;20549;-56
2023/05/03 16:55:28;;;;;;;6.03;3.58;;;15.30;80.60;;;;;;7307506;32;20265;-56
2023/05/03 16:59:30;;;;;;;7.10;3.70;;;15.30;79.60;;;;;;7298613;32;20130;-56
2023/05/03 17:03:32;;;;;;;7.37;3.95;;;15.20;81.00;;;;;;7306128;32;20617;-56
2023/05/03 17:07:34;;;;;;;8.65;3.60;;;15.10;80.90;;;;;;7298427;32;20249;-56
2023/05/03 17:11:36;;;;;;;9.32;4.05;;;15.10;82.60;;;;;;7300135;32;20111;-56
2023/05/03 17:15:38;;;;;;;7.15;4.15;;;15.00;82.80;;;;;;7301515;32;20597;-56
2023/05/03 17:19:39;;;;;;;7.78;5.00;;;15.00;84.10;;;;;;7301174;32;20324;-55
2023/05/03 17:23:41;;;;;;;7.40;4.03;;;14.90;85.40;;;;;;7296675;32;20226;-55
2023/05/03 17:27:43;;;;;;;7.75;3.20;;;14.90;85.20;;;;;;7296443;32;20249;-56
2023/05/03 17:31:45;;;;;;;5.15;4.00;;;14.80;86.10;;;;;;7292958;32;20205;-56
2023/05/03 17:35:46;;;;;;;5.75;3.60;;;14.80;86.50;;;;;;7296235;32;20198;-57
2023/05/03 17:39:48;;;;;;;5.95;3.90;;;14.70;88.10;;;;;;7307044;32;20990;-56
2023/05/03 17:43:50;;;;;;;10.73;4.10;;;14.70;88.00;;;;;;7306989;32;20111;-56
2023/05/03 17:47:52;;;;;;;8.68;3.85;;;14.60;88.60;;;;;;7307696;32;20298;-57
2023/05/03 17:51:54;;;;;;;6.80;3.72;;;14.60;90.40;;;;;;7310985;32;20222;-55
2023/05/03 17:55:56;;;;;;;6.20;3.75;;;14.50;89.60;;;;;;7315059;32;20403;-55
2023/05/03 17:59:58;;;;;;;8.20;3.75;;;14.50;90.10;;;;;;7316496;32;20290;-56
2023/05/03 18:04:00;;;;;;;7.85;3.90;;;14.40;90.40;;;;;;7303476;32;20116;-55
2023/05/03 18:08:02;;;;;;;10.45;3.50;;;14.30;90.40;;;;;;7306005;32;20111;-57
2023/05/03 18:12:04;;;;;;;5.30;3.65;;;14.20;90.80;;;;;;7308034;32;20226;-56
2023/05/03 18:16:07;;;;;;;7.12;3.58;;;14.00;91.70;;;;;;7313078;32;20557;-56
2023/05/03 18:20:09;;;;;;;9.93;3.53;;;14.00;92.10;;;;;;7310074;32;20150;-56
2023/05/03 18:24:11;;;;;;;6.32;4.03;;;13.80;93.40;;;;;;7311469;32;20301;-55
2023/05/03 18:28:12;;;;;;;9.00;4.50;;;13.70;93.50;;;;;;7302242;32;20908;-56
2023/05/03 18:32:15;;;;;;;7.35;3.80;;;13.70;93.60;;;;;;7304109;32;20510;-57
2023/05/03 18:36:16;;;;;;;8.30;3.47;;;13.50;93.90;;;;;;7310056;32;20107;-56
2023/05/03 18:40:18;;;;;;;7.72;3.50;;;13.50;94.70;;;;;;7317098;32;20119;-56
2023/05/03 18:44:22;;;;;;;8.02;3.70;;;13.30;95.60;;;;;;7312025;32;20295;-56
2023/05/03 18:48:24;;;;;;;6.55;2.92;;;13.30;95.60;;;;;;7309736;32;20548;-56
2023/05/03 18:52:26;;;;;;;11.00;3.78;;;13.10;96.40;;;;;;7304770;32;20192;-56
2023/05/03 18:56:29;;;;;;;8.52;3.72;;;13.00;97.30;;;;;;7302718;32;20248;-55
2023/05/03 19:00:31;;;;;;;7.47;3.42;;;12.80;98.90;;;;;;7306476;32;20137;-57
2023/05/03 19:04:33;;;;;;;6.47;3.20;;;12.70;99.50;;;;;;7306389;32;20210;-56
2023/05/03 19:08:35;;;;;;;6.62;3.30;;;12.60;99.30;;;;;;7306557;32;20564;-55
2023/05/03 19:12:37;;;;;;;6.85;3.58;;;12.60;99.90;;;;;;7305602;32;20115;-55
2023/05/03 19:16:38;;;;;;;6.72;3.33;;;12.50;99.90;;;;;;7306060;32;20139;-56
2023/05/03 19:20:40;;;;;;;8.20;3.80;;;12.50;99.90;;;;;;7303820;32;20230;-61
2023/05/03 19:24:42;;;;;;;5.95;2.92;;;12.30;99.90;;;;;;7308403;32;20136;-55
2023/05/03 19:28:44;;;;;;;6.90;3.78;;;12.30;99.90;;;;;;7309219;32;20767;-54
2023/05/03 19:32:46;;;;;;;8.15;3.55;;;12.20;99.90;;;;;;7304055;32;20854;-54
2023/05/03 19:36:49;;;;;;;5.75;3.28;;;12.20;99.90;;;;;;7306413;32;21104;-56
2023/05/03 19:40:57;;;;;;;7.40;3.70;;;12.20;99.90;;;;;;7304534;32;20130;-55
2023/05/03 19:45:02;;;;;;;5.97;3.08;;;12.10;99.90;;;;;;7304149;32;20172;-54
2023/05/03 19:49:04;;;;;;;10.35;3.67;;;12.00;99.90;;;;;;7308352;32;20293;-55
2023/05/03 19:53:06;;;;;;;8.73;3.12;;;12.00;99.90;;;;;;7310009;32;20129;-55
2023/05/03 19:57:08;;;;;;;6.60;3.17;;;11.90;99.90;;;;;;7306721;32;20149;-55
2023/05/03 20:01:10;;;;;;;7.50;3.15;;;11.80;99.90;;;;;;7306466;32;20219;-57
2023/05/03 20:05:11;;;;;;;4.97;3.75;;;11.70;99.90;;;;;;7297467;32;20108;-54
2023/05/03 20:09:13;;;;;;;10.80;3.85;;;11.70;99.90;;;;;;7307811;32;20822;-55
2023/05/03 20:13:15;;;;;;;6.70;3.20;;;11.60;99.90;;;;;;7302448;32;20360;-55
2023/05/03 20:17:17;;;;;;;5.75;2.80;;;11.70;99.90;;;;;;7308279;32;20153;-55
2023/05/03 20:21:18;;;;;;;5.47;3.35;;;11.50;99.90;;;;;;7304309;32;20111;-54
2023/05/03 20:25:20;;;;;;;6.72;2.90;;;11.40;99.90;;;;;;7307919;32;20564;-55
2023/05/03 20:29:22;;;;;;;8.23;3.45;;;11.50;99.90;;;;;;7303151;32;20161;-57
2023/05/03 20:33:24;;;;;;;5.72;2.95;;;11.40;99.90;;;;;;7303765;32;20131;-56
2023/05/03 20:37:26;;;;;;;6.07;2.85;;;11.30;99.90;;;;;;7307452;32;20230;-55
2023/05/03 20:41:27;;;;;;;6.85;3.00;;;11.30;99.90;;;;;;7303613;32;20538;-55
2023/05/03 20:45:29;;;;;;;8.70;2.92;;;11.30;99.90;;;;;;7308735;32;21036;-55
2023/05/03 20:49:31;;;;;;;8.98;3.20;;;11.20;99.90;;;;;;7308450;32;20165;-55
2023/05/03 20:53:33;;;;;;;7.47;3.17;;;11.20;99.90;;;;;;7303596;32;20243;-56
2023/05/03 20:57:42;;;;;;;6.57;2.92;;;11.00;99.90;;;;;;7308799;32;20104;-55
2023/05/03 21:01:43;;;;;;;10.00;3.30;;;10.90;99.90;;;;;;7309324;32;20198;-56
2023/05/03 21:05:45;;;;;;;5.10;3.00;;;10.90;99.90;;;;;;7308351;32;20108;-56
2023/05/03 21:09:47;;;;;;;7.47;3.12;;;10.80;99.90;;;;;;7312411;32;20111;-55